首页
METAR-TAF:

METAR-TAF

机场 :

敖德薩, 乌克兰

敖德薩國際機場

纬度: 46-26N, 经度: 030-46E, 海拔: 42米

当前天气观测

该预报发布于10分钟前的01:30 UTC
风速10节,风向北转西北
温度 0°C
湿度 100%
气压 1004 hPa
能见度10公里或以上
阴天层高于700英尺

METAR: UKOO 190130Z 33005MPS 9999 OVC007 M00/M00 Q1004 R34/690535 NOSIG

时间: 03:40 (01:40 UTC)

预报

该预报发布于2小时和34分钟前的23:06 UTC
预报有效从19日的 00点(UTC)到 19日的 24点(UTC)
风速14节,风向,有时为23节阵风
能見度: 2100
散云层高于400英尺
阴天层高于700英尺
多云层高于1700英尺, 积雨云.
小阵雪, 轻雾
短暂存在
从 19日的 00点(UTC)到 19日的 06点(UTC)
能見度: 1000
多云层高于300英尺
多云层高于1800英尺, 积雨云.
阵雪
几率 40% :
短暂存在
从 19日的 00点(UTC)到 19日的 06点(UTC)
冻雨, 雪
成为
从 19日的 06点(UTC)到 19日的 07点(UTC)
风速6节,风向西转西南

TAF: UKOO 182306Z 1900/1924 35007G12MPS 2100 -SHSN BR SCT004 OVC007 BKN017CB TEMPO 1900/1906 1000 SHSN BKN003 BKN018CB PROB40 TEMPO 1900/1906 FZRASN BECMG 1906/1907 25003MPS TX02/1911Z TNM01/1900Z

超过4000个机场的气象观测和天气预报(METAR&TAF报告)。

可查询的气象台以黄色和红色小点在地图上表示。

将鼠标移到小点上方,可查看气象台名称。

然后点击查看天气观测和预报。

如需切换地图:点击带黑十字的绿色按钮放大地图;点击带横线的绿色按钮缩小地图;或者点击绿色箭头查看邻近地区的地图。


METAR-TAF: